createdAt,value
2019-04-01T00:02:19.040Z,101877.00
2019-04-01T00:04:49.396Z,101859.00
2019-04-01T00:07:23.011Z,101858.00
2019-04-01T00:09:53.723Z,101856.00
2019-04-01T00:12:24.039Z,101862.00
2019-04-01T00:14:54.537Z,101861.00
2019-04-01T00:17:24.902Z,101865.00
2019-04-01T00:19:55.295Z,101854.00
2019-04-01T00:22:26.065Z,101861.00
2019-04-01T00:24:56.533Z,101856.00
2019-04-01T00:27:27.229Z,101851.00
2019-04-01T00:29:57.554Z,101855.00
2019-04-01T00:32:27.929Z,101846.00
2019-04-01T00:34:58.280Z,101853.00
2019-04-01T00:37:28.911Z,101850.00
2019-04-01T00:39:59.277Z,101852.00
2019-04-01T00:42:37.281Z,101852.00
2019-04-01T00:45:10.112Z,101853.00
2019-04-01T00:47:40.529Z,101855.00
2019-04-01T00:50:11.320Z,101853.00
2019-04-01T00:52:41.688Z,101848.00
2019-04-01T00:55:12.281Z,101850.00
2019-04-01T00:57:43.163Z,101842.00
2019-04-01T01:00:14.618Z,101848.00
2019-04-01T01:02:45.573Z,101838.00
2019-04-01T01:05:15.915Z,101836.00
2019-04-01T01:07:46.225Z,101837.00
2019-04-01T01:10:17.679Z,101836.00
2019-04-01T01:12:48.056Z,101841.00
2019-04-01T01:15:18.415Z,101831.00
2019-04-01T01:17:48.987Z,101832.00
2019-04-01T01:20:19.362Z,101822.00
2019-04-01T01:22:49.706Z,101819.00
2019-04-01T01:25:20.012Z,101818.00
2019-04-01T01:27:50.624Z,101817.00
2019-04-01T01:30:20.927Z,101800.00
2019-04-01T01:32:51.283Z,101811.00
2019-04-01T01:35:21.656Z,101816.00
2019-04-01T01:37:51.990Z,101814.00
2019-04-01T01:40:22.635Z,101805.00
2019-04-01T01:42:52.975Z,101814.00
2019-04-01T01:45:23.598Z,101803.00
2019-04-01T01:47:53.945Z,101794.00
2019-04-01T01:50:31.219Z,101796.00
2019-04-01T01:53:01.563Z,101804.00
2019-04-01T01:55:32.141Z,101803.00
2019-04-01T01:58:02.794Z,101805.00
2019-04-01T02:00:34.121Z,101796.00
2019-04-01T02:03:04.576Z,101796.00
2019-04-01T02:05:34.923Z,101800.00
2019-04-01T02:08:05.682Z,101799.00
2019-04-01T02:10:36.010Z,101794.00
2019-04-01T02:13:06.369Z,101800.00
2019-04-01T02:15:37.154Z,101787.00
2019-04-01T02:18:07.488Z,101797.00
2019-04-01T02:20:37.849Z,101790.00
2019-04-01T02:23:08.510Z,101783.00
2019-04-01T02:25:39.108Z,101782.00
2019-04-01T02:28:10.428Z,101783.00
2019-04-01T02:30:40.817Z,101782.00
2019-04-01T02:33:11.413Z,101770.00
2019-04-01T02:35:42.055Z,101778.00
2019-04-01T02:38:12.396Z,101784.00
2019-04-01T02:40:42.744Z,101778.00
2019-04-01T02:43:13.685Z,101778.00
2019-04-01T02:45:43.986Z,101775.00
2019-04-01T02:48:14.701Z,101784.00
2019-04-01T02:50:45.047Z,101780.00
2019-04-01T02:53:15.342Z,101777.00
2019-04-01T02:55:45.694Z,101768.00
2019-04-01T02:58:16.302Z,101776.00
2019-04-01T03:00:47.990Z,101771.00
2019-04-01T03:03:18.356Z,101776.00
2019-04-01T03:05:48.726Z,101777.00
2019-04-01T03:08:19.058Z,101773.00
2019-04-01T03:10:49.405Z,101776.00
2019-04-01T03:13:20.069Z,101779.00
2019-04-01T03:15:50.438Z,101776.00
2019-04-01T03:18:20.789Z,101777.00
2019-04-01T03:20:51.424Z,101764.00
2019-04-01T03:23:21.795Z,101767.00
2019-04-01T03:25:52.133Z,101765.00
2019-04-01T03:28:22.549Z,101760.00
2019-04-01T03:30:52.923Z,101770.00
2019-04-01T03:33:24.227Z,101767.00
2019-04-01T03:35:54.921Z,101762.00
2019-04-01T03:38:27.776Z,101763.00
2019-04-01T03:40:57.592Z,101762.00
2019-04-01T03:43:27.923Z,101756.00
2019-04-01T03:45:58.313Z,101751.00
2019-04-01T03:48:29.290Z,101754.00
2019-04-01T03:50:59.941Z,101746.00
2019-04-01T03:53:30.271Z,101746.00
2019-04-01T03:56:00.619Z,101739.00
2019-04-01T03:58:30.946Z,101749.00
2019-04-01T04:01:01.590Z,101754.00
2019-04-01T04:03:32.037Z,101748.00
2019-04-01T04:06:02.671Z,101746.00
2019-04-01T04:08:33.516Z,101750.00
2019-04-01T04:11:04.693Z,101752.00
2019-04-01T04:13:35.087Z,101748.00
2019-04-01T04:16:05.691Z,101747.00
2019-04-01T04:18:36.338Z,101750.00
2019-04-01T04:21:06.713Z,101742.00
2019-04-01T04:23:37.597Z,101749.00
2019-04-01T04:26:07.950Z,101743.00
2019-04-01T04:28:38.545Z,101745.00
2019-04-01T04:31:08.920Z,101742.00
2019-04-01T04:33:39.553Z,101740.00
2019-04-01T04:36:10.215Z,101741.00
2019-04-01T04:38:41.096Z,101736.00
2019-04-01T04:41:11.456Z,101747.00
2019-04-01T04:43:41.789Z,101745.00
2019-04-01T04:46:12.120Z,101745.00
2019-04-01T04:48:42.449Z,101738.00
2019-04-01T04:51:12.776Z,101740.00
2019-04-01T04:53:43.367Z,101741.00
2019-04-01T04:56:14.086Z,101735.00
2019-04-01T04:58:44.829Z,101745.00
2019-04-01T05:01:15.466Z,101741.00
2019-04-01T05:03:45.778Z,101743.00
2019-04-01T05:06:16.120Z,101741.00
2019-04-01T05:08:46.754Z,101749.00
2019-04-01T05:11:17.458Z,101743.00
2019-04-01T05:13:47.843Z,101742.00
2019-04-01T05:16:18.342Z,101750.00
2019-04-01T05:18:49.377Z,101752.00
2019-04-01T05:21:20.065Z,101751.00
2019-04-01T05:23:53.000Z,101746.00
2019-04-01T05:26:25.336Z,101764.00
2019-04-01T05:28:58.485Z,101751.00
2019-04-01T05:31:30.992Z,101752.00
2019-04-01T05:34:04.359Z,101757.00
2019-04-01T05:36:35.166Z,101759.00
2019-04-01T05:39:07.158Z,101754.00
2019-04-01T05:41:37.877Z,101751.00
2019-04-01T05:44:08.449Z,101762.00
2019-04-01T05:46:38.772Z,101773.00
2019-04-01T05:49:09.376Z,101755.00
2019-04-01T05:51:40.701Z,101775.00
2019-04-01T05:54:11.619Z,101770.00
2019-04-01T05:56:42.097Z,101774.00
2019-04-01T05:59:12.396Z,101773.00
2019-04-01T06:01:45.865Z,101763.00
2019-04-01T06:04:16.198Z,101775.00
2019-04-01T06:06:49.101Z,101777.00
2019-04-01T06:09:19.613Z,101775.00
2019-04-01T06:11:49.975Z,101781.00
2019-04-01T06:14:21.094Z,101774.00
2019-04-01T06:16:51.465Z,101796.00
2019-04-01T06:19:21.826Z,101782.00
2019-04-01T06:21:53.403Z,101794.00
2019-04-01T06:24:24.832Z,101781.00
2019-04-01T06:26:55.326Z,101789.00
2019-04-01T06:29:25.709Z,101780.00
2019-04-01T06:31:56.082Z,101785.00
2019-04-01T06:34:26.809Z,101788.00
2019-04-01T06:36:57.507Z,101782.00
2019-04-01T06:39:28.130Z,101789.00
2019-04-01T06:41:58.489Z,101786.00
2019-04-01T06:44:29.175Z,101780.00
2019-04-01T06:46:59.514Z,101778.00
2019-04-01T06:49:30.209Z,101790.00
2019-04-01T06:52:00.574Z,101782.00
2019-04-01T06:54:30.960Z,101783.00
2019-04-01T06:57:01.426Z,101787.00
2019-04-01T06:59:31.783Z,101783.00
2019-04-01T07:02:02.122Z,101782.00
2019-04-01T07:04:32.667Z,101785.00
2019-04-01T07:07:17.824Z,101781.00
2019-04-01T07:09:35.839Z,101780.00
2019-04-01T07:12:06.179Z,101787.00
2019-04-01T07:14:37.363Z,101773.00
2019-04-01T07:17:07.782Z,101774.00
2019-04-01T07:19:38.564Z,101772.00
2019-04-01T07:22:09.009Z,101763.00
2019-04-01T07:24:40.190Z,101762.00
2019-04-01T07:27:10.856Z,101761.00
2019-04-01T07:29:41.499Z,101759.00
2019-04-01T07:32:14.562Z,101766.00
2019-04-01T07:34:44.479Z,101761.00
2019-04-01T07:37:14.964Z,101755.00
2019-04-01T07:39:45.310Z,101769.00
2019-04-01T07:42:15.696Z,101740.00
2019-04-01T07:44:46.270Z,101760.00
2019-04-01T07:47:16.627Z,101762.00
2019-04-01T07:49:47.030Z,101773.00
2019-04-01T07:52:17.736Z,101757.00
2019-04-01T07:54:48.332Z,101760.00
2019-04-01T07:57:19.494Z,101761.00
2019-04-01T07:59:49.821Z,101761.00
2019-04-01T08:02:20.203Z,101752.00
2019-04-01T08:04:51.231Z,101747.00
2019-04-01T08:07:21.872Z,101748.00
2019-04-01T08:09:53.858Z,101742.00
2019-04-01T08:12:27.757Z,101744.00
2019-04-01T08:14:57.076Z,101736.00
2019-04-01T08:17:27.426Z,101744.00
2019-04-01T08:19:59.023Z,101747.00
2019-04-01T08:22:30.193Z,101737.00
2019-04-01T08:25:00.906Z,101732.00
2019-04-01T08:27:31.283Z,101741.00
2019-04-01T08:30:02.285Z,101738.00
2019-04-01T08:32:32.933Z,101742.00
2019-04-01T08:35:04.229Z,101733.00
2019-04-01T08:37:34.976Z,101727.00
2019-04-01T08:40:06.008Z,101718.00
2019-04-01T08:42:36.368Z,101720.00
2019-04-01T08:45:07.784Z,101719.00
2019-04-01T08:47:39.290Z,101713.00
2019-04-01T08:50:11.095Z,101721.00
2019-04-01T08:52:41.482Z,101712.00
2019-04-01T08:55:11.813Z,101728.00
2019-04-01T08:57:42.946Z,101716.00
2019-04-01T09:00:14.463Z,101720.00
2019-04-01T09:02:44.891Z,101712.00
2019-04-01T09:05:15.239Z,101713.00
2019-04-01T09:07:45.635Z,101713.00
2019-04-01T09:10:15.976Z,101701.00
2019-04-01T09:12:46.988Z,101717.00
2019-04-01T09:15:17.786Z,101712.00
2019-04-01T09:17:48.597Z,101700.00
2019-04-01T09:20:18.964Z,101705.00
2019-04-01T09:22:49.348Z,101699.00
2019-04-01T09:25:19.738Z,101700.00
2019-04-01T09:27:50.351Z,101692.00
2019-04-01T09:30:21.139Z,101695.00
2019-04-01T09:32:51.544Z,101690.00
2019-04-01T09:35:21.902Z,101678.00
2019-04-01T09:37:52.327Z,101680.00
2019-04-01T09:40:22.669Z,101674.00
2019-04-01T09:42:53.074Z,101680.00
2019-04-01T09:45:24.013Z,101673.00
2019-04-01T09:47:55.020Z,101661.00
2019-04-01T09:50:25.350Z,101651.00
2019-04-01T09:52:56.112Z,101658.00
2019-04-01T09:55:26.541Z,101655.00
2019-04-01T09:57:56.889Z,101654.00
2019-04-01T10:00:27.295Z,101648.00
2019-04-01T10:02:57.673Z,101638.00
2019-04-01T10:05:28.009Z,101640.00
2019-04-01T10:07:58.466Z,101632.00
2019-04-01T10:10:29.342Z,101625.00
2019-04-01T10:13:00.052Z,101636.00
2019-04-01T10:15:32.510Z,101622.00
2019-04-01T10:18:06.555Z,101613.00
2019-04-01T10:20:39.160Z,101608.00
2019-04-01T10:23:11.271Z,101603.00
2019-04-01T10:25:41.627Z,101591.00
2019-04-01T10:28:12.032Z,101601.00
2019-04-01T10:30:42.985Z,101579.00
2019-04-01T10:33:13.527Z,101586.00
2019-04-01T10:35:43.987Z,101580.00
2019-04-01T10:38:14.479Z,101585.00
2019-04-01T10:40:49.633Z,101587.00
2019-04-01T10:43:20.006Z,101582.00
2019-04-01T10:45:50.365Z,101579.00
2019-04-01T10:48:20.766Z,101572.00
2019-04-01T10:50:51.265Z,101572.00
2019-04-01T10:53:21.612Z,101566.00
2019-04-01T10:55:52.593Z,101565.00
2019-04-01T10:58:22.937Z,101562.00
2019-04-01T11:00:57.988Z,101563.00
2019-04-01T11:03:28.479Z,101557.00
2019-04-01T11:05:59.066Z,101548.00
2019-04-01T11:08:29.532Z,101559.00
2019-04-01T11:10:59.930Z,101543.00
2019-04-01T11:13:31.298Z,101539.00
2019-04-01T11:16:04.136Z,101539.00
2019-04-01T11:18:35.081Z,101536.00
2019-04-01T11:21:05.753Z,101538.00
2019-04-01T11:23:39.179Z,101535.00
2019-04-01T11:26:09.531Z,101529.00
2019-04-01T11:28:40.766Z,101532.00
2019-04-01T11:31:12.007Z,101533.00
2019-04-01T11:33:43.481Z,101521.00
2019-04-01T11:36:13.996Z,101523.00
2019-04-01T11:38:44.777Z,101520.00
2019-04-01T11:41:15.119Z,101512.00
2019-04-01T11:43:45.490Z,101513.00
2019-04-01T11:46:16.286Z,101503.00
2019-04-01T11:48:46.650Z,101507.00
2019-04-01T11:51:31.461Z,101501.00
2019-04-01T11:53:49.693Z,101494.00
2019-04-01T11:56:20.060Z,101494.00
2019-04-01T11:58:50.423Z,101488.00
2019-04-01T12:01:21.045Z,101492.00
2019-04-01T12:03:51.752Z,101488.00
2019-04-01T12:06:24.424Z,101483.00
2019-04-01T12:08:54.893Z,101490.00
2019-04-01T12:11:26.447Z,101468.00
2019-04-01T12:13:57.082Z,101472.00
2019-04-01T12:16:27.976Z,101467.00
2019-04-01T12:18:58.395Z,101457.00
2019-04-01T12:21:28.785Z,101458.00
2019-04-01T12:23:59.680Z,101472.00
2019-04-01T12:26:30.050Z,101463.00
2019-04-01T12:29:00.678Z,101451.00
2019-04-01T12:31:31.301Z,101446.00
2019-04-01T12:34:01.974Z,101445.00
2019-04-01T12:36:32.561Z,101427.00
2019-04-01T12:39:05.975Z,101431.00
2019-04-01T12:41:36.855Z,101408.00
2019-04-01T12:44:07.480Z,101412.00
2019-04-01T12:46:38.216Z,101414.00
2019-04-01T12:49:08.586Z,101408.00
2019-04-01T12:51:39.191Z,101398.00
2019-04-01T12:54:09.607Z,101402.00
2019-04-01T12:56:39.951Z,101393.00
2019-04-01T12:59:10.311Z,101388.00
2019-04-01T13:01:40.686Z,101391.00
2019-04-01T13:04:11.404Z,101380.00
2019-04-01T13:06:43.289Z,101382.00
2019-04-01T13:09:14.023Z,101378.00
2019-04-01T13:11:44.380Z,101374.00
2019-04-01T13:14:15.085Z,101364.00
2019-04-01T13:16:46.492Z,101368.00
2019-04-01T13:19:16.861Z,101372.00
2019-04-01T13:21:47.216Z,101360.00
2019-04-01T13:24:18.105Z,101355.00
2019-04-01T13:26:50.825Z,101341.00
2019-04-01T13:29:20.597Z,101337.00
2019-04-01T13:31:51.299Z,101316.00
2019-04-01T13:34:21.930Z,101330.00
2019-04-01T13:36:52.308Z,101333.00
2019-04-01T13:39:22.641Z,101321.00
2019-04-01T13:41:56.034Z,101311.00
2019-04-01T13:44:36.731Z,101323.00
2019-04-01T13:46:57.672Z,101306.00
2019-04-01T13:49:28.042Z,101307.00
2019-04-01T13:51:59.537Z,101304.00
2019-04-01T13:54:30.899Z,101294.00
2019-04-01T13:57:01.666Z,101270.00
2019-04-01T13:59:48.068Z,101287.00
2019-04-01T14:02:05.797Z,101281.00
2019-04-01T14:04:37.262Z,101275.00
2019-04-01T14:07:08.063Z,101270.00
2019-04-01T14:09:38.739Z,101269.00
2019-04-01T14:12:09.243Z,101262.00
2019-04-01T14:14:39.620Z,101262.00
2019-04-01T14:17:10.091Z,101262.00
2019-04-01T14:19:40.844Z,101257.00
2019-04-01T14:22:11.174Z,101253.00
2019-04-01T14:24:42.723Z,101238.00
2019-04-01T14:27:13.974Z,101232.00
2019-04-01T14:29:45.133Z,101230.00
2019-04-01T14:32:18.067Z,101231.00
2019-04-01T14:34:50.285Z,101215.00
2019-04-01T14:37:25.650Z,101217.00
2019-04-01T14:39:53.433Z,101216.00
2019-04-01T14:42:24.106Z,101209.00
2019-04-01T14:45:00.622Z,101211.00
2019-04-01T14:47:32.555Z,101202.00
2019-04-01T14:50:07.376Z,101199.00
2019-04-01T14:52:35.269Z,101200.00
2019-04-01T14:55:05.956Z,101185.00
2019-04-01T14:57:36.329Z,101185.00
2019-04-01T15:00:09.811Z,101184.00
2019-04-01T15:02:40.238Z,101182.00
2019-04-01T15:05:10.789Z,101181.00
2019-04-01T15:07:43.186Z,101178.00
2019-04-01T15:10:15.117Z,101164.00
2019-04-01T15:12:46.335Z,101164.00
2019-04-01T15:15:16.778Z,101154.00
2019-04-01T15:17:47.621Z,101160.00
2019-04-01T15:20:19.683Z,101155.00
2019-04-01T15:22:50.581Z,101140.00
2019-04-01T15:25:21.040Z,101142.00
2019-04-01T15:27:52.182Z,101139.00
2019-04-01T15:30:23.004Z,101126.00
2019-04-01T15:32:53.391Z,101133.00
2019-04-01T15:35:23.778Z,101118.00
2019-04-01T15:37:54.146Z,101117.00
2019-04-01T15:40:24.797Z,101108.00
2019-04-01T15:42:55.655Z,101113.00
2019-04-01T15:45:26.023Z,101112.00
2019-04-01T15:47:57.055Z,101104.00
2019-04-01T15:50:29.058Z,101105.00
2019-04-01T15:52:59.920Z,101105.00
2019-04-01T15:55:31.678Z,101108.00
2019-04-01T15:58:02.704Z,101117.00
2019-04-01T16:00:33.387Z,101114.00
2019-04-01T16:03:03.978Z,101111.00
2019-04-01T16:05:34.923Z,101102.00
2019-04-01T16:08:05.310Z,101086.00
2019-04-01T16:10:36.170Z,101096.00
2019-04-01T16:13:06.565Z,101087.00
2019-04-01T16:15:38.294Z,101089.00
2019-04-01T16:18:09.109Z,101078.00
2019-04-01T16:20:39.823Z,101083.00
2019-04-01T16:23:13.115Z,101078.00
2019-04-01T16:25:43.452Z,101078.00
2019-04-01T16:28:14.199Z,101080.00
2019-04-01T16:30:44.946Z,101075.00
2019-04-01T16:33:15.594Z,101078.00
2019-04-01T16:35:46.489Z,101065.00
2019-04-01T16:38:16.888Z,101067.00
2019-04-01T16:40:57.803Z,101072.00
2019-04-01T16:43:29.661Z,101059.00
2019-04-01T16:46:00.002Z,101064.00
2019-04-01T16:48:30.481Z,101071.00
2019-04-01T16:51:01.186Z,101060.00
2019-04-01T16:53:31.598Z,101065.00
2019-04-01T16:56:02.357Z,101057.00
2019-04-01T16:58:32.784Z,101065.00
2019-04-01T17:01:03.371Z,101053.00
2019-04-01T17:03:34.310Z,101054.00
2019-04-01T17:06:04.722Z,101043.00
2019-04-01T17:08:35.085Z,101041.00
2019-04-01T17:11:05.535Z,101043.00
2019-04-01T17:13:35.934Z,101038.00
2019-04-01T17:16:07.271Z,101037.00
2019-04-01T17:18:38.927Z,101034.00
2019-04-01T17:21:09.562Z,101037.00
2019-04-01T17:23:41.962Z,101027.00
2019-04-01T17:26:11.957Z,101028.00
2019-04-01T17:28:42.325Z,101025.00
2019-04-01T17:31:12.787Z,101027.00
2019-04-01T17:33:43.423Z,101025.00
2019-04-01T17:36:15.854Z,101025.00
2019-04-01T17:38:48.226Z,101027.00
2019-04-01T17:41:18.702Z,101025.00
2019-04-01T17:43:49.061Z,101023.00
2019-04-01T17:46:19.402Z,101014.00
2019-04-01T17:48:49.818Z,101012.00
2019-04-01T17:51:20.201Z,101014.00
2019-04-01T17:53:50.964Z,101021.00
2019-04-01T17:56:21.306Z,101012.00
2019-04-01T17:58:52.310Z,101010.00
2019-04-01T18:01:22.755Z,101014.00
2019-04-01T18:03:53.170Z,101008.00
2019-04-01T18:06:23.597Z,101006.00
2019-04-01T18:08:54.230Z,101012.00
2019-04-01T18:11:25.240Z,101002.00
2019-04-01T18:14:02.734Z,101009.00
2019-04-01T18:16:31.586Z,101004.00
2019-04-01T18:19:02.020Z,101004.00
2019-04-01T18:21:32.708Z,101002.00
2019-04-01T18:24:03.080Z,101008.00
2019-04-01T18:26:33.413Z,101013.00
2019-04-01T18:29:03.743Z,101019.00
2019-04-01T18:31:34.835Z,101017.00
2019-04-01T18:34:05.461Z,101021.00
2019-04-01T18:36:35.800Z,101020.00
2019-04-01T18:39:08.934Z,101017.00
2019-04-01T18:41:39.305Z,101018.00
2019-04-01T18:44:10.052Z,101018.00
2019-04-01T18:46:40.426Z,101022.00
2019-04-01T18:49:11.032Z,101017.00
2019-04-01T18:51:41.364Z,101017.00
2019-04-01T18:54:11.689Z,101015.00
2019-04-01T18:56:42.078Z,101018.00
2019-04-01T18:59:12.441Z,101016.00
2019-04-01T19:01:43.311Z,101006.00
2019-04-01T19:04:14.892Z,101015.00
2019-04-01T19:06:49.727Z,101010.00
2019-04-01T19:09:18.750Z,101005.00
2019-04-01T19:12:02.972Z,101002.00
2019-04-01T19:14:22.498Z,101008.00
2019-04-01T19:16:53.232Z,101015.00
2019-04-01T19:19:24.359Z,101003.00
2019-04-01T19:21:55.242Z,101010.00
2019-04-01T19:24:25.914Z,101009.00
2019-04-01T19:26:56.300Z,101010.00
2019-04-01T19:29:26.465Z,101006.00
2019-04-01T19:31:56.797Z,101003.00
2019-04-01T19:34:27.226Z,101008.00
2019-04-01T19:36:58.908Z,101006.00
2019-04-01T19:39:30.386Z,101003.00
2019-04-01T19:42:00.825Z,101009.00
2019-04-01T19:44:32.190Z,100999.00
2019-04-01T19:47:02.540Z,100989.00
2019-04-01T19:49:35.969Z,100994.00
2019-04-01T19:52:09.662Z,100991.00
2019-04-01T19:54:39.387Z,100982.00
2019-04-01T19:57:10.059Z,100975.00
2019-04-01T19:59:40.763Z,100984.00
2019-04-01T20:02:11.101Z,100985.00
2019-04-01T20:04:41.435Z,100967.00
2019-04-01T20:07:12.031Z,100963.00
2019-04-01T20:09:46.093Z,100962.00
2019-04-01T20:12:15.184Z,100961.00
2019-04-01T20:14:45.533Z,100966.00
2019-04-01T20:17:15.828Z,100948.00
2019-04-01T20:19:46.761Z,100959.00
2019-04-01T20:22:21.162Z,100947.00
2019-04-01T20:24:51.537Z,100948.00
2019-04-01T20:27:22.321Z,100951.00
2019-04-01T20:29:54.998Z,100938.00
2019-04-01T20:32:25.659Z,100940.00
2019-04-01T20:34:57.288Z,100942.00
2019-04-01T20:37:29.227Z,100932.00
2019-04-01T20:40:00.523Z,100929.00
2019-04-01T20:42:33.630Z,100924.00
2019-04-01T20:45:03.536Z,100934.00
2019-04-01T20:47:35.858Z,100927.00
2019-04-01T20:50:07.957Z,100917.00
2019-04-01T20:52:44.250Z,100923.00
2019-04-01T20:55:15.851Z,100922.00
2019-04-01T20:57:46.510Z,100922.00
2019-04-01T21:00:17.828Z,100914.00
2019-04-01T21:02:48.135Z,100913.00
2019-04-01T21:05:18.476Z,100912.00
2019-04-01T21:07:49.139Z,100917.00
2019-04-01T21:10:20.827Z,100912.00
2019-04-01T21:12:51.154Z,100908.00
2019-04-01T21:15:21.680Z,100910.00
2019-04-01T21:17:52.502Z,100892.00
2019-04-01T21:20:22.823Z,100891.00
2019-04-01T21:22:59.594Z,100892.00
2019-04-01T21:25:30.202Z,100882.00
2019-04-01T21:28:00.664Z,100886.00
2019-04-01T21:30:30.981Z,100870.00
2019-04-01T21:33:01.373Z,100869.00
2019-04-01T21:35:31.845Z,100870.00
2019-04-01T21:38:03.162Z,100865.00
2019-04-01T21:40:34.408Z,100867.00
2019-04-01T21:43:04.765Z,100868.00
2019-04-01T21:45:35.083Z,100859.00
2019-04-01T21:48:06.533Z,100853.00
2019-04-01T21:50:37.218Z,100859.00
2019-04-01T21:53:07.639Z,100851.00
2019-04-01T21:55:38.222Z,100847.00
2019-04-01T21:58:08.853Z,100834.00
2019-04-01T22:00:53.307Z,100838.00
2019-04-01T22:03:23.737Z,100827.00
2019-04-01T22:05:54.465Z,100827.00
2019-04-01T22:08:25.213Z,100831.00
2019-04-01T22:10:56.120Z,100816.00
2019-04-01T22:13:27.449Z,100820.00
2019-04-01T22:15:58.160Z,100816.00
2019-04-01T22:18:28.449Z,100822.00
2019-04-01T22:20:58.788Z,100812.00
2019-04-01T22:23:48.250Z,100810.00
2019-04-01T22:26:18.609Z,100809.00
2019-04-01T22:28:48.961Z,100814.00
2019-04-01T22:31:19.711Z,100810.00
2019-04-01T22:33:50.041Z,100807.00
2019-04-01T22:36:30.430Z,100805.00
2019-04-01T22:38:52.734Z,100796.00
2019-04-01T22:41:23.080Z,100802.00
2019-04-01T22:43:54.291Z,100810.00
2019-04-01T22:46:24.980Z,100794.00
2019-04-01T22:48:55.410Z,100797.00
2019-04-01T22:51:37.597Z,100782.00
2019-04-01T22:54:08.193Z,100782.00
2019-04-01T22:56:38.896Z,100787.00
2019-04-01T22:59:09.229Z,100782.00
2019-04-01T23:01:40.078Z,100774.00
2019-04-01T23:04:10.762Z,100780.00
2019-04-01T23:06:41.358Z,100767.00
2019-04-01T23:09:11.698Z,100766.00
2019-04-01T23:11:41.990Z,100764.00
2019-04-01T23:14:12.376Z,100754.00
2019-04-01T23:16:42.673Z,100755.00
2019-04-01T23:19:13.013Z,100754.00
2019-04-01T23:21:43.340Z,100760.00
2019-04-01T23:24:13.665Z,100750.00
2019-04-01T23:26:44.002Z,100747.00
2019-04-01T23:29:14.320Z,100739.00
2019-04-01T23:31:45.040Z,100740.00
2019-04-01T23:34:18.559Z,100732.00
2019-04-01T23:36:49.172Z,100736.00
2019-04-01T23:39:19.505Z,100728.00
2019-04-01T23:41:50.334Z,100720.00
2019-04-01T23:44:21.171Z,100731.00
2019-04-01T23:46:51.517Z,100721.00
2019-04-01T23:49:21.839Z,100724.00
2019-04-01T23:51:52.144Z,100716.00
2019-04-01T23:54:22.473Z,100709.00
2019-04-01T23:56:53.126Z,100719.00
2019-04-01T23:59:23.432Z,100707.00
